createdAt,value
2018-01-20T00:00:07.154Z,-1.11
2018-01-20T00:02:35.526Z,-1.07
2018-01-20T00:05:03.841Z,-1.03
2018-01-20T00:07:32.174Z,-1.09
2018-01-20T00:23:32.554Z,-1.00
2018-01-20T00:26:06.886Z,-0.92
2018-01-20T00:28:35.233Z,-1.09
2018-01-20T00:31:03.577Z,-1.25
2018-01-20T00:33:31.920Z,-1.34
2018-01-20T00:36:00.297Z,-1.38
2018-01-20T00:38:28.602Z,-1.42
2018-01-20T00:40:56.934Z,-1.15
2018-01-20T00:43:25.264Z,-1.20
2018-01-20T00:45:53.608Z,-1.39
2018-01-20T00:48:21.959Z,-1.52
2018-01-20T00:50:50.333Z,-1.56
2018-01-20T00:53:18.655Z,-1.56
2018-01-20T00:55:46.989Z,-1.50
2018-01-20T00:58:15.326Z,-1.50
2018-01-20T01:00:43.678Z,-1.47
2018-01-20T01:03:11.994Z,-1.47
2018-01-20T01:05:40.367Z,-1.52
2018-01-20T01:08:08.684Z,-1.53
2018-01-20T01:10:37.030Z,-1.60
2018-01-20T01:13:05.412Z,-1.61
2018-01-20T01:15:33.746Z,-1.67
2018-01-20T01:18:02.083Z,-1.56
2018-01-20T01:20:30.485Z,-1.63
2018-01-20T01:22:58.813Z,-1.69
2018-01-20T01:25:27.128Z,-1.75
2018-01-20T01:27:55.495Z,-1.81
2018-01-20T01:30:23.801Z,-1.85
2018-01-20T01:32:52.112Z,-1.87
2018-01-20T01:35:20.464Z,-1.88
2018-01-20T01:37:48.843Z,-1.83
2018-01-20T01:40:17.149Z,-1.69
2018-01-20T01:42:45.481Z,-1.71
2018-01-20T01:45:13.933Z,-1.69
2018-01-20T01:47:42.328Z,-1.49
2018-01-20T01:50:10.694Z,-1.40
2018-01-20T01:52:39.013Z,-1.34
2018-01-20T01:55:07.314Z,-1.46
2018-01-20T01:57:35.668Z,-1.63
2018-01-20T02:00:04.025Z,-1.70
2018-01-20T02:02:48.332Z,-1.83
2018-01-20T02:05:16.816Z,-1.90
2018-01-20T02:07:45.142Z,-1.98
2018-01-20T02:10:14.628Z,-1.98
2018-01-20T02:12:44.089Z,-1.96
2018-01-20T02:15:12.454Z,-1.81
2018-01-20T02:17:40.816Z,-1.67
2018-01-20T02:20:09.265Z,-1.68
2018-01-20T02:22:37.693Z,-1.61
2018-01-20T02:25:08.172Z,-1.65
2018-01-20T02:27:36.492Z,-1.75
2018-01-20T02:30:23.811Z,-1.83
2018-01-20T02:32:52.130Z,-1.95
2018-01-20T02:35:20.457Z,-2.06
2018-01-20T02:37:48.837Z,-2.02
2018-01-20T02:40:17.150Z,-1.75
2018-01-20T02:42:52.431Z,-1.71
2018-01-20T02:45:20.774Z,-1.66
2018-01-20T02:47:52.600Z,-1.72
2018-01-20T02:50:20.920Z,-1.65
2018-01-20T02:52:49.261Z,-1.61
2018-01-20T02:55:17.611Z,-1.77
2018-01-20T02:57:45.924Z,-1.97
2018-01-20T03:00:14.221Z,-2.11
2018-01-20T03:02:42.550Z,-2.02
2018-01-20T03:05:10.856Z,-1.99
2018-01-20T03:07:41.296Z,-2.02
2018-01-20T03:10:09.696Z,-1.88
2018-01-20T03:12:45.177Z,-1.88
2018-01-20T03:15:13.537Z,-1.81
2018-01-20T03:17:41.874Z,-1.87
2018-01-20T03:20:10.177Z,-1.84
2018-01-20T03:22:38.530Z,-1.72
2018-01-20T03:25:06.848Z,-1.65
2018-01-20T03:27:35.180Z,-1.60
2018-01-20T03:30:03.580Z,-1.47
2018-01-20T03:32:31.890Z,-1.26
2018-01-20T03:35:00.222Z,-1.25
2018-01-20T03:37:31.909Z,-1.18
2018-01-20T03:40:00.352Z,-1.07
2018-01-20T03:42:30.815Z,-1.11
2018-01-20T03:44:59.155Z,-1.15
2018-01-20T03:47:27.461Z,-1.18
2018-01-20T03:49:55.797Z,-1.18
2018-01-20T03:52:24.142Z,-1.17
2018-01-20T03:54:52.479Z,-1.19
2018-01-20T03:57:20.819Z,-1.17
2018-01-20T03:59:49.166Z,-1.05
2018-01-20T04:02:17.509Z,-0.93
2018-01-20T04:04:45.820Z,-0.75
2018-01-20T04:07:17.597Z,-0.66
2018-01-20T04:09:45.990Z,-0.70
2018-01-20T04:12:14.340Z,-0.60
2018-01-20T04:14:42.689Z,-0.53
2018-01-20T04:17:11.008Z,-0.62
2018-01-20T04:19:39.326Z,-0.61
2018-01-20T04:22:18.297Z,-0.83
2018-01-20T04:24:46.650Z,-0.95
2018-01-20T04:27:17.055Z,-0.92
2018-01-20T04:29:45.401Z,-1.05
2018-01-20T04:32:24.250Z,-0.89
2018-01-20T04:34:52.583Z,-0.92
2018-01-20T04:37:20.882Z,-1.01
2018-01-20T04:39:49.205Z,-1.06
2018-01-20T04:42:17.538Z,-1.11
2018-01-20T04:44:45.847Z,-1.16
2018-01-20T04:47:20.498Z,-1.33
2018-01-20T04:49:48.785Z,-1.46
2018-01-20T04:52:25.498Z,-1.49
2018-01-20T04:54:53.853Z,-1.59
2018-01-20T04:57:22.165Z,-1.71
2018-01-20T04:59:50.647Z,-1.70
2018-01-20T05:02:18.979Z,-1.76
2018-01-20T05:05:04.808Z,-1.78
2018-01-20T05:07:33.182Z,-1.84
2018-01-20T05:10:01.489Z,-1.86
2018-01-20T05:12:29.887Z,-1.76
2018-01-20T05:15:04.670Z,-1.79
2018-01-20T05:17:33.000Z,-1.92
2018-01-20T05:20:04.974Z,-1.99
2018-01-20T05:22:33.319Z,-1.93
2018-01-20T05:25:01.660Z,-1.88
2018-01-20T05:27:30.020Z,-1.74
2018-01-20T05:29:58.369Z,-1.73
2018-01-20T05:32:26.708Z,-1.71
2018-01-20T05:34:55.010Z,-1.65
2018-01-20T05:37:23.349Z,-1.73
2018-01-20T05:39:51.680Z,-1.64
2018-01-20T05:42:20.005Z,-1.68
2018-01-20T05:44:48.346Z,-1.65
2018-01-20T05:47:16.658Z,-1.66
2018-01-20T05:49:44.985Z,-1.76
2018-01-20T05:52:13.333Z,-1.81
2018-01-20T05:54:41.654Z,-1.86
2018-01-20T05:57:09.972Z,-1.98
2018-01-20T05:59:38.402Z,-2.03
2018-01-20T06:02:06.724Z,-2.01
2018-01-20T06:04:35.033Z,-2.04
2018-01-20T06:07:03.493Z,-2.07
2018-01-20T06:09:31.848Z,-2.07
2018-01-20T06:12:10.324Z,-2.09
2018-01-20T06:14:38.643Z,-2.07
2018-01-20T06:17:06.985Z,-2.07
2018-01-20T06:19:35.338Z,-2.12
2018-01-20T06:22:03.670Z,-2.16
2018-01-20T06:24:32.017Z,-2.22
2018-01-20T06:27:00.390Z,-2.04
2018-01-20T06:29:28.696Z,-1.92
2018-01-20T06:31:57.030Z,-1.89
2018-01-20T06:34:38.735Z,-1.65
2018-01-20T06:37:07.029Z,-1.75
2018-01-20T06:39:35.500Z,-1.89
2018-01-20T06:42:03.875Z,-1.93
2018-01-20T06:44:42.502Z,-2.00
2018-01-20T06:47:11.045Z,-1.98
2018-01-20T06:49:39.419Z,-1.90
2018-01-20T06:52:07.917Z,-1.87
2018-01-20T06:54:36.336Z,-1.85
2018-01-20T06:57:04.719Z,-1.80
2018-01-20T06:59:33.060Z,-1.59
2018-01-20T07:02:01.542Z,-1.50
2018-01-20T07:04:29.971Z,-1.49
2018-01-20T07:06:58.396Z,-1.35
2018-01-20T07:09:26.818Z,-0.48
2018-01-20T07:11:55.174Z,0.95
2018-01-20T07:14:23.519Z,2.01
2018-01-20T07:16:51.979Z,2.84
2018-01-20T07:19:20.325Z,4.85
2018-01-20T07:21:48.676Z,6.06
2018-01-20T07:24:17.121Z,7.30
2018-01-20T07:26:45.570Z,7.86
2018-01-20T07:29:13.984Z,6.84
2018-01-20T07:31:44.532Z,6.67
2018-01-20T07:34:14.972Z,6.32
2018-01-20T07:36:43.398Z,7.61
2018-01-20T07:39:11.807Z,8.23
2018-01-20T07:41:40.253Z,9.10
2018-01-20T07:44:07.067Z,10.12
2018-01-20T07:46:33.901Z,11.54
2018-01-20T07:49:00.608Z,13.27
2018-01-20T07:51:28.052Z,14.08
2018-01-20T07:53:54.816Z,14.36
2018-01-20T07:56:22.385Z,15.16
2018-01-20T07:58:49.901Z,12.68
2018-01-20T08:01:16.671Z,13.93
2018-01-20T08:03:44.097Z,15.41
2018-01-20T08:06:11.081Z,14.62
2018-01-20T08:08:37.846Z,11.98
2018-01-20T08:11:05.287Z,14.25
2018-01-20T08:13:31.989Z,15.29
2018-01-20T08:15:58.714Z,16.18
2018-01-20T08:18:25.446Z,12.94
2018-01-20T08:20:52.874Z,15.15
2018-01-20T08:23:19.592Z,15.42
2018-01-20T08:25:46.281Z,17.19
2018-01-20T08:28:13.774Z,16.66
2018-01-20T08:30:40.610Z,17.17
2018-01-20T08:33:07.310Z,16.67
2018-01-20T08:35:34.041Z,18.39
2018-01-20T08:38:00.760Z,17.32
2018-01-20T08:40:27.457Z,16.76
2018-01-20T08:42:54.910Z,15.76
2018-01-20T08:45:21.818Z,17.47
2018-01-20T08:47:48.751Z,19.30
2018-01-20T08:50:15.474Z,19.41
2018-01-20T08:52:44.035Z,18.28
2018-01-20T08:55:11.483Z,18.73
2018-01-20T08:57:38.163Z,19.74
2018-01-20T09:00:05.631Z,18.21
2018-01-20T09:02:33.043Z,19.12
2018-01-20T09:04:59.745Z,20.10
2018-01-20T09:07:26.483Z,19.97
2018-01-20T09:09:53.903Z,19.96
2018-01-20T09:12:20.589Z,19.91
2018-01-20T09:14:47.301Z,20.08
2018-01-20T09:17:14.370Z,20.44
2018-01-20T09:19:41.069Z,20.65
2018-01-20T09:22:07.795Z,19.95
2018-01-20T09:24:34.685Z,20.77
2018-01-20T09:27:01.379Z,18.83
2018-01-20T09:29:28.095Z,19.29
2018-01-20T09:31:55.522Z,19.61
2018-01-20T09:34:23.885Z,18.84
2018-01-20T09:36:50.599Z,19.34
2018-01-20T09:39:18.961Z,17.83
2018-01-20T09:41:46.391Z,19.41
2018-01-20T09:44:13.210Z,19.77
2018-01-20T09:46:39.902Z,19.74
2018-01-20T09:49:07.346Z,21.02
2018-01-20T09:51:34.197Z,20.64
2018-01-20T09:54:00.877Z,20.98
2018-01-20T09:56:27.560Z,21.23
2018-01-20T09:58:55.937Z,20.35
2018-01-20T10:01:24.306Z,20.77
2018-01-20T10:03:52.728Z,21.07
2018-01-20T10:06:21.127Z,19.75
2018-01-20T10:08:49.509Z,20.27
2018-01-20T10:11:17.877Z,19.76
2018-01-20T10:13:46.348Z,18.80
2018-01-20T10:16:15.103Z,20.59
2018-01-20T10:18:43.481Z,19.59
2018-01-20T10:21:11.930Z,18.46
2018-01-20T10:23:40.273Z,16.11
2018-01-20T10:26:08.575Z,16.71
2018-01-20T10:28:36.974Z,18.64
2018-01-20T10:31:05.344Z,18.84
2018-01-20T10:33:33.731Z,16.25
2018-01-20T10:36:02.095Z,16.89
2018-01-20T10:38:30.401Z,17.64
2018-01-20T10:40:58.744Z,16.86
2018-01-20T10:43:27.178Z,15.95
2018-01-20T10:45:55.479Z,14.48
2018-01-20T10:48:23.832Z,16.28
2018-01-20T10:50:52.420Z,17.38
2018-01-20T10:53:20.770Z,18.19
2018-01-20T10:55:49.078Z,19.47
2018-01-20T10:58:17.421Z,19.86
2018-01-20T11:00:45.812Z,18.50
2018-01-20T11:03:14.255Z,17.25
2018-01-20T11:05:42.821Z,17.88
2018-01-20T11:08:11.185Z,19.26
2018-01-20T11:10:39.520Z,19.42
2018-01-20T11:13:07.824Z,19.52
2018-01-20T11:15:36.165Z,18.92
2018-01-20T11:18:04.558Z,18.74
2018-01-20T11:20:34.039Z,19.47
2018-01-20T11:23:02.371Z,19.98
2018-01-20T11:25:30.678Z,20.89
2018-01-20T11:27:59.023Z,20.07
2018-01-20T11:30:27.329Z,19.50
2018-01-20T11:32:55.624Z,18.39
2018-01-20T11:35:23.980Z,18.93
2018-01-20T11:37:52.504Z,19.26
2018-01-20T11:40:20.885Z,19.50
2018-01-20T11:42:49.609Z,20.20
2018-01-20T11:45:18.031Z,20.80
2018-01-20T11:47:46.416Z,21.35
2018-01-20T11:50:14.880Z,20.43
2018-01-20T11:52:43.206Z,19.69
2018-01-20T11:55:11.557Z,19.16
2018-01-20T11:57:39.940Z,19.36
2018-01-20T12:00:08.256Z,19.20
2018-01-20T12:02:36.636Z,19.42
2018-01-20T12:05:05.085Z,17.13
2018-01-20T12:07:33.523Z,16.90
2018-01-20T12:10:01.855Z,19.00
2018-01-20T12:12:30.297Z,19.42
2018-01-20T12:14:58.676Z,18.68
2018-01-20T12:17:27.086Z,18.29
2018-01-20T12:19:55.455Z,16.46
2018-01-20T12:22:23.919Z,16.57
2018-01-20T12:24:52.390Z,15.61
2018-01-20T12:27:21.582Z,16.61
2018-01-20T12:29:49.965Z,14.80
2018-01-20T12:32:18.350Z,13.89
2018-01-20T12:34:48.585Z,15.01
2018-01-20T12:37:16.951Z,16.19
2018-01-20T12:39:45.380Z,16.23
2018-01-20T12:42:13.866Z,16.31
2018-01-20T12:44:42.309Z,16.65
2018-01-20T12:47:10.754Z,17.53
2018-01-20T12:49:39.161Z,18.22
2018-01-20T12:52:07.574Z,18.07
2018-01-20T12:54:35.902Z,18.24
2018-01-20T12:57:04.310Z,18.03
2018-01-20T12:59:32.682Z,18.87
2018-01-20T13:02:01.083Z,17.66
2018-01-20T13:04:29.405Z,17.80
2018-01-20T13:06:57.739Z,16.37
2018-01-20T13:09:26.093Z,15.49
2018-01-20T13:11:54.471Z,13.14
2018-01-20T13:14:22.842Z,14.04
2018-01-20T13:16:51.211Z,13.23
2018-01-20T13:19:19.586Z,12.60
2018-01-20T13:21:47.990Z,12.48
2018-01-20T13:24:16.306Z,11.93
2018-01-20T13:26:44.680Z,11.49
2018-01-20T13:29:13.081Z,10.81
2018-01-20T13:31:41.440Z,10.43
2018-01-20T13:34:13.781Z,10.05
2018-01-20T13:36:42.270Z,9.71
2018-01-20T13:39:10.613Z,9.41
2018-01-20T13:41:38.996Z,9.43
2018-01-20T13:44:07.330Z,9.21
2018-01-20T13:46:35.671Z,9.35
2018-01-20T13:49:04.252Z,9.03
2018-01-20T13:51:32.695Z,8.70
2018-01-20T13:54:01.030Z,8.48
2018-01-20T13:56:29.444Z,8.41
2018-01-20T13:58:57.777Z,8.37
2018-01-20T14:01:26.161Z,8.27
2018-01-20T14:03:54.490Z,8.22
2018-01-20T14:06:22.909Z,8.32
2018-01-20T14:08:51.225Z,8.22
2018-01-20T14:11:42.098Z,7.78
2018-01-20T14:14:10.609Z,7.74
2018-01-20T14:16:39.142Z,7.68
2018-01-20T14:19:07.498Z,7.85
2018-01-20T14:21:40.474Z,8.01
2018-01-20T14:24:08.866Z,7.99
2018-01-20T14:26:37.244Z,7.89
2018-01-20T14:29:05.642Z,7.85
2018-01-20T14:31:34.109Z,7.80
2018-01-20T14:34:02.608Z,7.78
2018-01-20T14:36:31.011Z,7.67
2018-01-20T14:38:59.443Z,7.56
2018-01-20T14:41:27.831Z,7.41
2018-01-20T14:43:56.229Z,7.30
2018-01-20T14:46:24.618Z,7.05
2018-01-20T14:48:53.115Z,7.02
2018-01-20T14:51:21.511Z,6.90
2018-01-20T14:53:49.893Z,6.81
2018-01-20T14:56:18.271Z,6.71
2018-01-20T14:58:46.662Z,6.53
2018-01-20T15:01:15.051Z,6.40
2018-01-20T15:03:43.416Z,6.28
2018-01-20T15:06:11.872Z,6.18
2018-01-20T15:08:40.346Z,6.04
2018-01-20T15:11:08.702Z,5.96
2018-01-20T15:13:37.031Z,5.90
2018-01-20T15:16:05.414Z,5.71
2018-01-20T15:18:33.759Z,5.57
2018-01-20T15:21:06.119Z,5.44
2018-01-20T15:23:34.461Z,5.38
2018-01-20T15:26:02.851Z,5.28
2018-01-20T15:28:31.238Z,5.14
2018-01-20T15:30:59.639Z,5.03
2018-01-20T15:33:29.118Z,4.92
2018-01-20T15:35:58.577Z,4.80
2018-01-20T15:38:27.992Z,4.64
2018-01-20T15:40:56.353Z,4.57
2018-01-20T15:43:24.695Z,4.46
2018-01-20T15:45:53.068Z,4.33
2018-01-20T15:48:21.413Z,4.12
2018-01-20T15:50:49.810Z,4.02
2018-01-20T15:53:18.188Z,3.97
2018-01-20T15:55:46.516Z,3.87
2018-01-20T15:58:14.965Z,3.83
2018-01-20T16:00:43.286Z,3.77
2018-01-20T16:03:11.632Z,3.71
2018-01-20T16:05:40.026Z,3.64
2018-01-20T16:08:08.397Z,3.47
2018-01-20T16:10:36.779Z,3.35
2018-01-20T16:13:05.174Z,3.28
2018-01-20T16:15:33.522Z,3.12
2018-01-20T16:18:01.989Z,3.09
2018-01-20T16:20:30.365Z,3.05
2018-01-20T16:22:58.725Z,3.01
2018-01-20T16:25:27.095Z,2.94
2018-01-20T16:27:55.520Z,2.91
2018-01-20T16:30:23.842Z,2.88
2018-01-20T16:32:52.228Z,2.74
2018-01-20T16:35:20.612Z,2.66
2018-01-20T16:37:49.109Z,2.58
2018-01-20T16:40:17.405Z,2.57
2018-01-20T16:45:44.127Z,2.47
2018-01-20T16:48:12.625Z,2.48
2018-01-20T16:50:44.713Z,2.44
2018-01-20T16:53:20.666Z,2.43
2018-01-20T16:55:49.212Z,2.42
2018-01-20T16:58:21.854Z,2.39
2018-01-20T17:00:50.277Z,2.41
2018-01-20T17:03:18.684Z,2.40
2018-01-20T17:05:47.134Z,2.37
2018-01-20T17:08:15.556Z,2.37
2018-01-20T17:10:43.930Z,2.44
2018-01-20T17:13:12.856Z,2.36
2018-01-20T17:15:47.400Z,2.30
2018-01-20T17:18:15.949Z,2.25
2018-01-20T17:20:48.869Z,2.20
2018-01-20T17:23:17.270Z,2.14
2018-01-20T17:25:45.690Z,2.13
2018-01-20T17:28:14.172Z,2.15
2018-01-20T17:30:42.671Z,2.24
2018-01-20T17:33:21.914Z,2.20
2018-01-20T17:35:50.292Z,2.23
2018-01-20T17:38:24.758Z,2.27
2018-01-20T17:40:53.089Z,2.38
2018-01-20T17:43:21.429Z,2.39
2018-01-20T17:46:07.354Z,2.38
2018-01-20T17:48:43.870Z,2.50
2018-01-20T17:51:12.305Z,2.41
2018-01-20T17:53:40.692Z,2.34
2018-01-20T17:56:09.046Z,2.33
2018-01-20T17:58:37.476Z,2.32
2018-01-20T18:01:05.873Z,2.25
2018-01-20T18:03:34.356Z,2.17
2018-01-20T18:06:03.666Z,2.17
2018-01-20T18:08:32.150Z,2.16
2018-01-20T18:11:01.408Z,2.21
2018-01-20T18:13:29.821Z,2.13
2018-01-20T18:15:58.158Z,2.06
2018-01-20T18:18:26.532Z,2.02
2018-01-20T18:20:54.958Z,1.97
2018-01-20T18:23:23.754Z,1.95
2018-01-20T18:25:52.100Z,1.93
2018-01-20T18:28:20.532Z,1.90
2018-01-20T18:30:48.945Z,1.90
2018-01-20T18:33:17.342Z,1.86
2018-01-20T18:35:45.741Z,1.84
2018-01-20T18:38:14.099Z,1.89
2018-01-20T18:40:42.564Z,1.93
2018-01-20T18:43:10.939Z,1.88
2018-01-20T18:45:39.273Z,1.89
2018-01-20T18:48:07.724Z,1.88
2018-01-20T18:50:36.160Z,1.85
2018-01-20T18:53:04.504Z,1.84
2018-01-20T18:55:32.894Z,1.83
2018-01-20T18:58:01.250Z,1.82
2018-01-20T19:00:29.701Z,1.84
2018-01-20T19:02:58.062Z,1.86
2018-01-20T19:05:26.412Z,1.89
2018-01-20T19:07:55.899Z,1.93
2018-01-20T19:10:24.245Z,1.92
2018-01-20T19:12:52.640Z,1.93
2018-01-20T19:15:20.966Z,1.94
2018-01-20T19:17:49.361Z,1.99
2018-01-20T19:20:17.809Z,2.05
2018-01-20T19:22:46.226Z,2.01
2018-01-20T19:25:14.591Z,1.94
2018-01-20T19:27:43.066Z,1.99
2018-01-20T19:30:11.483Z,1.99
2018-01-20T19:32:39.963Z,1.95
2018-01-20T19:35:08.350Z,1.94
2018-01-20T19:37:36.711Z,1.96
2018-01-20T19:40:05.185Z,1.95
2018-01-20T19:42:33.629Z,2.01
2018-01-20T19:45:02.017Z,2.08
2018-01-20T19:47:30.342Z,2.13
2018-01-20T19:49:58.802Z,2.10
2018-01-20T19:52:27.196Z,2.04
2018-01-20T19:54:55.636Z,2.07
2018-01-20T19:57:24.065Z,2.06
2018-01-20T19:59:52.443Z,2.15
2018-01-20T20:02:20.926Z,2.27
2018-01-20T20:04:49.409Z,2.21
2018-01-20T20:07:17.850Z,2.38
2018-01-20T20:09:46.202Z,2.32
2018-01-20T20:12:14.579Z,2.33
2018-01-20T20:14:42.962Z,2.29
2018-01-20T20:19:46.347Z,2.34
2018-01-20T20:22:14.695Z,2.41
2018-01-20T20:24:43.083Z,2.42
2018-01-20T20:27:11.535Z,2.35
2018-01-20T20:29:39.941Z,2.35
2018-01-20T20:32:08.309Z,2.31
2018-01-20T20:34:36.670Z,2.31
2018-01-20T20:37:04.997Z,2.31
2018-01-20T20:39:33.411Z,2.36
2018-01-20T20:42:01.831Z,2.43
2018-01-20T20:44:30.186Z,2.48
2018-01-20T20:46:58.536Z,2.51
2018-01-20T20:49:26.911Z,2.50
2018-01-20T20:51:55.317Z,2.48
2018-01-20T20:54:23.759Z,2.43
2018-01-20T20:56:52.315Z,2.52
2018-01-20T20:59:20.664Z,2.50
2018-01-20T21:01:49.015Z,2.47
2018-01-20T21:04:17.450Z,2.50
2018-01-20T21:06:45.847Z,2.57
2018-01-20T21:09:14.174Z,2.50
2018-01-20T21:11:42.633Z,2.45
2018-01-20T21:14:10.954Z,2.45
2018-01-20T21:16:39.322Z,2.46
2018-01-20T21:19:07.729Z,2.45
2018-01-20T21:21:36.074Z,2.47
2018-01-20T21:24:04.408Z,2.40
2018-01-20T21:26:32.750Z,2.42
2018-01-20T21:29:01.090Z,2.39
2018-01-20T21:31:29.435Z,2.39
2018-01-20T21:33:57.821Z,2.18
2018-01-20T21:36:26.145Z,2.23
2018-01-20T21:38:54.685Z,2.22
2018-01-20T21:41:23.275Z,2.24
2018-01-20T21:43:51.658Z,2.25
2018-01-20T21:46:24.568Z,2.28
2018-01-20T21:48:52.902Z,2.24
2018-01-20T21:51:21.219Z,2.23
2018-01-20T21:53:49.604Z,2.19
2018-01-20T21:56:17.987Z,2.20
2018-01-20T21:58:46.354Z,2.19
2018-01-20T22:01:14.898Z,2.16
2018-01-20T22:03:43.206Z,2.18
2018-01-20T22:06:15.670Z,2.17
2018-01-20T22:08:44.185Z,2.17
2018-01-20T22:11:12.577Z,2.15
2018-01-20T22:13:40.959Z,2.16
2018-01-20T22:16:09.294Z,2.15
2018-01-20T22:18:37.678Z,2.15
2018-01-20T22:21:06.290Z,2.11
2018-01-20T22:23:34.876Z,2.10
2018-01-20T22:26:03.273Z,2.06
2018-01-20T22:28:31.657Z,2.07
2018-01-20T22:30:59.990Z,2.02
2018-01-20T22:33:28.344Z,2.04
2018-01-20T22:35:56.697Z,1.96
2018-01-20T22:38:25.108Z,1.95
2018-01-20T22:40:53.448Z,1.95
2018-01-20T22:43:21.781Z,1.94
2018-01-20T22:45:50.139Z,1.90
2018-01-20T22:48:18.518Z,1.94
2018-01-20T22:50:46.881Z,1.95
2018-01-20T22:53:15.262Z,1.97
2018-01-20T22:55:43.771Z,2.03
2018-01-20T22:58:12.177Z,2.02
2018-01-20T23:00:40.589Z,2.00
2018-01-20T23:03:08.967Z,1.98
2018-01-20T23:05:37.330Z,1.88
2018-01-20T23:08:06.060Z,1.76
2018-01-20T23:10:34.518Z,1.71
2018-01-20T23:13:03.016Z,1.59
2018-01-20T23:15:31.368Z,1.49
2018-01-20T23:17:59.826Z,1.53
2018-01-20T23:20:28.265Z,1.45
2018-01-20T23:22:56.605Z,1.31
2018-01-20T23:25:28.912Z,1.21
2018-01-20T23:27:57.235Z,1.09
2018-01-20T23:30:25.653Z,1.07
2018-01-20T23:32:54.002Z,1.04
2018-01-20T23:35:22.340Z,1.08
2018-01-20T23:37:50.809Z,0.94
2018-01-20T23:40:19.166Z,0.89
2018-01-20T23:42:47.517Z,0.90
2018-01-20T23:45:15.957Z,0.84
2018-01-20T23:47:44.364Z,0.78
2018-01-20T23:50:12.708Z,0.77
2018-01-20T23:52:41.093Z,0.78
2018-01-20T23:55:09.485Z,0.82
2018-01-20T23:57:37.866Z,0.78
